sensor_id;sensor_type;location;lat;lon;timestamp;P1;durP1;ratioP1;P2;durP2;ratioP2
18411;SDS011;27097;51.738;19.472;2023-03-13T00:00:36;10.98;;;4.22;;
18411;SDS011;27097;51.738;19.472;2023-03-13T00:03:03;11.23;;;4.38;;
18411;SDS011;27097;51.738;19.472;2023-03-13T00:05:31;9.25;;;4.47;;
18411;SDS011;27097;51.738;19.472;2023-03-13T00:08:00;24.38;;;4.28;;
18411;SDS011;27097;51.738;19.472;2023-03-13T00:10:27;10.50;;;4.35;;
18411;SDS011;27097;51.738;19.472;2023-03-13T00:12:54;7.95;;;3.75;;
18411;SDS011;27097;51.738;19.472;2023-03-13T00:15:21;9.57;;;4.10;;
18411;SDS011;27097;51.738;19.472;2023-03-13T00:17:48;10.32;;;4.70;;
18411;SDS011;27097;51.738;19.472;2023-03-13T00:20:15;8.88;;;4.18;;
18411;SDS011;27097;51.738;19.472;2023-03-13T00:22:43;6.78;;;3.97;;
18411;SDS011;27097;51.738;19.472;2023-03-13T00:25:10;10.75;;;4.53;;
18411;SDS011;27097;51.738;19.472;2023-03-13T00:27:37;7.57;;;4.03;;
18411;SDS011;27097;51.738;19.472;2023-03-13T00:30:04;10.75;;;4.43;;
18411;SDS011;27097;51.738;19.472;2023-03-13T00:32:32;8.32;;;4.10;;
18411;SDS011;27097;51.738;19.472;2023-03-13T00:34:59;9.38;;;4.25;;
18411;SDS011;27097;51.738;19.472;2023-03-13T00:37:25;7.57;;;3.85;;
18411;SDS011;27097;51.738;19.472;2023-03-13T00:39:54;6.45;;;4.10;;
18411;SDS011;27097;51.738;19.472;2023-03-13T00:42:21;8.63;;;4.35;;
18411;SDS011;27097;51.738;19.472;2023-03-13T00:44:48;9.68;;;4.20;;
18411;SDS011;27097;51.738;19.472;2023-03-13T00:47:14;6.78;;;3.65;;
18411;SDS011;27097;51.738;19.472;2023-03-13T00:49:41;7.43;;;4.05;;
18411;SDS011;27097;51.738;19.472;2023-03-13T00:52:08;9.10;;;4.10;;
18411;SDS011;27097;51.738;19.472;2023-03-13T00:54:35;11.25;;;4.05;;
18411;SDS011;27097;51.738;19.472;2023-03-13T00:57:03;7.85;;;3.78;;
18411;SDS011;27097;51.738;19.472;2023-03-13T00:59:30;9.85;;;4.07;;
18411;SDS011;27097;51.738;19.472;2023-03-13T01:01:57;13.27;;;4.10;;
18411;SDS011;27097;51.738;19.472;2023-03-13T01:04:24;7.60;;;4.05;;
18411;SDS011;27097;51.738;19.472;2023-03-13T01:06:54;7.70;;;3.92;;
18411;SDS011;27097;51.738;19.472;2023-03-13T01:09:21;7.30;;;3.70;;
18411;SDS011;27097;51.738;19.472;2023-03-13T01:11:47;6.85;;;4.00;;
18411;SDS011;27097;51.738;19.472;2023-03-13T01:14:17;9.95;;;3.72;;
18411;SDS011;27097;51.738;19.472;2023-03-13T01:16:45;7.00;;;3.70;;
18411;SDS011;27097;51.738;19.472;2023-03-13T01:19:12;5.90;;;3.92;;
18411;SDS011;27097;51.738;19.472;2023-03-13T01:21:41;8.35;;;4.07;;
18411;SDS011;27097;51.738;19.472;2023-03-13T01:24:09;7.38;;;3.47;;
18411;SDS011;27097;51.738;19.472;2023-03-13T01:26:36;7.82;;;3.78;;
18411;SDS011;27097;51.738;19.472;2023-03-13T01:29:03;8.07;;;3.95;;
18411;SDS011;27097;51.738;19.472;2023-03-13T01:31:32;6.60;;;3.60;;
18411;SDS011;27097;51.738;19.472;2023-03-13T01:34:01;8.50;;;3.35;;
18411;SDS011;27097;51.738;19.472;2023-03-13T01:36:30;7.88;;;3.72;;
18411;SDS011;27097;51.738;19.472;2023-03-13T01:39:04;8.95;;;3.50;;
18411;SDS011;27097;51.738;19.472;2023-03-13T01:41:31;6.70;;;3.63;;
18411;SDS011;27097;51.738;19.472;2023-03-13T01:43:59;11.93;;;3.90;;
18411;SDS011;27097;51.738;19.472;2023-03-13T01:46:26;7.57;;;4.00;;
18411;SDS011;27097;51.738;19.472;2023-03-13T01:48:56;9.30;;;3.70;;
18411;SDS011;27097;51.738;19.472;2023-03-13T01:51:27;6.55;;;3.80;;
18411;SDS011;27097;51.738;19.472;2023-03-13T01:54:00;7.18;;;3.70;;
18411;SDS011;27097;51.738;19.472;2023-03-13T01:56:34;5.47;;;3.35;;
18411;SDS011;27097;51.738;19.472;2023-03-13T01:59:05;7.82;;;3.25;;
18411;SDS011;27097;51.738;19.472;2023-03-13T02:01:34;9.23;;;3.67;;
18411;SDS011;27097;51.738;19.472;2023-03-13T02:04:04;6.72;;;3.22;;
18411;SDS011;27097;51.738;19.472;2023-03-13T02:06:32;8.70;;;3.78;;
18411;SDS011;27097;51.738;19.472;2023-03-13T02:09:02;7.22;;;3.40;;
18411;SDS011;27097;51.738;19.472;2023-03-13T02:11:35;6.80;;;3.72;;
18411;SDS011;27097;51.738;19.472;2023-03-13T02:14:09;8.52;;;3.70;;
18411;SDS011;27097;51.738;19.472;2023-03-13T02:16:36;5.60;;;3.33;;
18411;SDS011;27097;51.738;19.472;2023-03-13T02:19:06;7.32;;;3.30;;
18411;SDS011;27097;51.738;19.472;2023-03-13T02:21:43;7.03;;;3.58;;
18411;SDS011;27097;51.738;19.472;2023-03-13T02:24:17;9.77;;;3.38;;
18411;SDS011;27097;51.738;19.472;2023-03-13T02:26:50;6.93;;;3.20;;
18411;SDS011;27097;51.738;19.472;2023-03-13T02:29:17;8.18;;;3.60;;
18411;SDS011;27097;51.738;19.472;2023-03-13T02:31:44;6.80;;;3.17;;
18411;SDS011;27097;51.738;19.472;2023-03-13T02:34:12;5.47;;;3.40;;
18411;SDS011;27097;51.738;19.472;2023-03-13T02:36:42;7.82;;;3.42;;
18411;SDS011;27097;51.738;19.472;2023-03-13T02:39:11;7.70;;;3.28;;
18411;SDS011;27097;51.738;19.472;2023-03-13T02:41:41;5.68;;;3.40;;
18411;SDS011;27097;51.738;19.472;2023-03-13T02:44:11;5.80;;;3.65;;
18411;SDS011;27097;51.738;19.472;2023-03-13T02:46:44;6.95;;;2.83;;
18411;SDS011;27097;51.738;19.472;2023-03-13T02:49:17;7.38;;;3.70;;
18411;SDS011;27097;51.738;19.472;2023-03-13T02:51:49;10.63;;;3.00;;
18411;SDS011;27097;51.738;19.472;2023-03-13T02:54:17;6.35;;;3.38;;
18411;SDS011;27097;51.738;19.472;2023-03-13T02:56:48;5.70;;;3.40;;
18411;SDS011;27097;51.738;19.472;2023-03-13T02:59:20;8.27;;;3.15;;
18411;SDS011;27097;51.738;19.472;2023-03-13T03:01:47;6.90;;;3.47;;
18411;SDS011;27097;51.738;19.472;2023-03-13T03:04:16;7.22;;;3.35;;
18411;SDS011;27097;51.738;19.472;2023-03-13T03:06:44;6.57;;;3.10;;
18411;SDS011;27097;51.738;19.472;2023-03-13T03:09:10;7.35;;;3.38;;
18411;SDS011;27097;51.738;19.472;2023-03-13T03:11:37;5.43;;;3.33;;
18411;SDS011;27097;51.738;19.472;2023-03-13T03:14:04;7.78;;;3.30;;
18411;SDS011;27097;51.738;19.472;2023-03-13T03:16:33;9.75;;;3.25;;
18411;SDS011;27097;51.738;19.472;2023-03-13T03:19:00;5.88;;;3.20;;
18411;SDS011;27097;51.738;19.472;2023-03-13T03:21:27;5.10;;;3.10;;
18411;SDS011;27097;51.738;19.472;2023-03-13T03:23:54;5.85;;;3.28;;
18411;SDS011;27097;51.738;19.472;2023-03-13T03:26:21;7.05;;;3.30;;
18411;SDS011;27097;51.738;19.472;2023-03-13T03:28:47;5.30;;;3.05;;
18411;SDS011;27097;51.738;19.472;2023-03-13T03:31:14;5.30;;;3.05;;
18411;SDS011;27097;51.738;19.472;2023-03-13T03:33:43;6.65;;;2.90;;
18411;SDS011;27097;51.738;19.472;2023-03-13T03:36:11;7.93;;;2.92;;
18411;SDS011;27097;51.738;19.472;2023-03-13T03:38:39;5.55;;;3.13;;
18411;SDS011;27097;51.738;19.472;2023-03-13T03:41:06;5.55;;;3.13;;
18411;SDS011;27097;51.738;19.472;2023-03-13T03:43:34;7.82;;;3.15;;
18411;SDS011;27097;51.738;19.472;2023-03-13T03:46:01;4.68;;;2.95;;
18411;SDS011;27097;51.738;19.472;2023-03-13T03:48:28;6.25;;;2.90;;
18411;SDS011;27097;51.738;19.472;2023-03-13T03:50:56;8.13;;;3.13;;
18411;SDS011;27097;51.738;19.472;2023-03-13T03:53:23;5.35;;;2.88;;
18411;SDS011;27097;51.738;19.472;2023-03-13T03:55:51;6.53;;;3.00;;
18411;SDS011;27097;51.738;19.472;2023-03-13T03:58:17;6.05;;;2.85;;
18411;SDS011;27097;51.738;19.472;2023-03-13T04:00:44;7.35;;;2.97;;
18411;SDS011;27097;51.738;19.472;2023-03-13T04:03:12;4.30;;;2.58;;
18411;SDS011;27097;51.738;19.472;2023-03-13T04:05:40;4.85;;;2.85;;
18411;SDS011;27097;51.738;19.472;2023-03-13T04:08:09;7.95;;;3.10;;
18411;SDS011;27097;51.738;19.472;2023-03-13T04:10:36;6.75;;;2.80;;
18411;SDS011;27097;51.738;19.472;2023-03-13T04:13:03;5.00;;;3.10;;
18411;SDS011;27097;51.738;19.472;2023-03-13T04:15:30;5.05;;;3.10;;
18411;SDS011;27097;51.738;19.472;2023-03-13T04:17:58;6.90;;;2.83;;
18411;SDS011;27097;51.738;19.472;2023-03-13T04:20:28;5.85;;;2.80;;
18411;SDS011;27097;51.738;19.472;2023-03-13T04:23:00;4.18;;;2.85;;
18411;SDS011;27097;51.738;19.472;2023-03-13T04:25:29;6.70;;;2.80;;
18411;SDS011;27097;51.738;19.472;2023-03-13T04:43:30;4.70;;;2.80;;
18411;SDS011;27097;51.738;19.472;2023-03-13T04:46:23;6.18;;;2.65;;
18411;SDS011;27097;51.738;19.472;2023-03-13T04:48:50;5.15;;;3.00;;
18411;SDS011;27097;51.738;19.472;2023-03-13T04:51:18;4.60;;;2.63;;
18411;SDS011;27097;51.738;19.472;2023-03-13T04:53:44;4.22;;;2.80;;
18411;SDS011;27097;51.738;19.472;2023-03-13T04:56:11;12.13;;;2.80;;
18411;SDS011;27097;51.738;19.472;2023-03-13T04:58:47;6.20;;;2.58;;
18411;SDS011;27097;51.738;19.472;2023-03-13T05:01:14;4.50;;;2.60;;
18411;SDS011;27097;51.738;19.472;2023-03-13T05:03:50;6.13;;;3.08;;
18411;SDS011;27097;51.738;19.472;2023-03-13T05:26:50;8.35;;;2.88;;
18411;SDS011;27097;51.738;19.472;2023-03-13T05:29:17;7.25;;;2.60;;
18411;SDS011;27097;51.738;19.472;2023-03-13T05:31:44;6.85;;;2.90;;
18411;SDS011;27097;51.738;19.472;2023-03-13T05:34:11;3.83;;;2.40;;
18411;SDS011;27097;51.738;19.472;2023-03-13T05:36:38;6.70;;;2.92;;
18411;SDS011;27097;51.738;19.472;2023-03-13T05:39:06;4.90;;;2.67;;
18411;SDS011;27097;51.738;19.472;2023-03-13T05:41:33;4.45;;;2.50;;
18411;SDS011;27097;51.738;19.472;2023-03-13T05:44:02;5.45;;;2.67;;
18411;SDS011;27097;51.738;19.472;2023-03-13T05:46:29;4.18;;;2.63;;
18411;SDS011;27097;51.738;19.472;2023-03-13T05:48:56;3.97;;;2.47;;
18411;SDS011;27097;51.738;19.472;2023-03-13T05:51:23;5.53;;;2.53;;
18411;SDS011;27097;51.738;19.472;2023-03-13T05:53:50;3.92;;;2.53;;
18411;SDS011;27097;51.738;19.472;2023-03-13T05:56:16;5.13;;;2.65;;
18411;SDS011;27097;51.738;19.472;2023-03-13T05:58:43;6.63;;;2.80;;
18411;SDS011;27097;51.738;19.472;2023-03-13T06:01:12;5.03;;;2.58;;
18411;SDS011;27097;51.738;19.472;2023-03-13T06:03:39;8.40;;;2.72;;
18411;SDS011;27097;51.738;19.472;2023-03-13T06:06:06;7.32;;;2.67;;
18411;SDS011;27097;51.738;19.472;2023-03-13T06:08:33;4.07;;;2.42;;
18411;SDS011;27097;51.738;19.472;2023-03-13T06:11:00;3.83;;;2.45;;
18411;SDS011;27097;51.738;19.472;2023-03-13T06:13:28;5.68;;;2.60;;
18411;SDS011;27097;51.738;19.472;2023-03-13T06:15:56;8.48;;;2.58;;
18411;SDS011;27097;51.738;19.472;2023-03-13T06:18:25;5.72;;;2.72;;
18411;SDS011;27097;51.738;19.472;2023-03-13T06:20:55;5.70;;;2.50;;
18411;SDS011;27097;51.738;19.472;2023-03-13T06:23:24;10.90;;;3.20;;
18411;SDS011;27097;51.738;19.472;2023-03-13T06:25:51;7.40;;;2.60;;
18411;SDS011;27097;51.738;19.472;2023-03-13T06:28:27;5.47;;;2.40;;
18411;SDS011;27097;51.738;19.472;2023-03-13T06:30:54;6.93;;;2.75;;
18411;SDS011;27097;51.738;19.472;2023-03-13T06:33:39;6.50;;;2.90;;
18411;SDS011;27097;51.738;19.472;2023-03-13T06:36:06;7.32;;;2.88;;
18411;SDS011;27097;51.738;19.472;2023-03-13T06:38:34;6.57;;;2.75;;
18411;SDS011;27097;51.738;19.472;2023-03-13T06:41:01;6.55;;;2.83;;
18411;SDS011;27097;51.738;19.472;2023-03-13T06:43:28;5.75;;;3.00;;
18411;SDS011;27097;51.738;19.472;2023-03-13T06:45:55;9.70;;;2.65;;
18411;SDS011;27097;51.738;19.472;2023-03-13T06:48:22;8.73;;;3.33;;
18411;SDS011;27097;51.738;19.472;2023-03-13T06:50:51;5.40;;;3.17;;
18411;SDS011;27097;51.738;19.472;2023-03-13T06:53:29;8.23;;;2.75;;
18411;SDS011;27097;51.738;19.472;2023-03-13T06:55:59;12.98;;;3.50;;
18411;SDS011;27097;51.738;19.472;2023-03-13T06:58:29;12.23;;;3.45;;
18411;SDS011;27097;51.738;19.472;2023-03-13T07:00:56;12.95;;;3.40;;
18411;SDS011;27097;51.738;19.472;2023-03-13T07:03:28;10.30;;;3.10;;
18411;SDS011;27097;51.738;19.472;2023-03-13T07:06:07;12.90;;;3.20;;
18411;SDS011;27097;51.738;19.472;2023-03-13T07:08:43;14.52;;;3.45;;
18411;SDS011;27097;51.738;19.472;2023-03-13T07:11:11;9.35;;;3.38;;
18411;SDS011;27097;51.738;19.472;2023-03-13T07:13:39;7.07;;;3.17;;
18411;SDS011;27097;51.738;19.472;2023-03-13T07:16:06;10.35;;;3.92;;
18411;SDS011;27097;51.738;19.472;2023-03-13T07:18:34;7.20;;;3.45;;
18411;SDS011;27097;51.738;19.472;2023-03-13T07:21:02;11.30;;;3.53;;
18411;SDS011;27097;51.738;19.472;2023-03-13T07:23:32;6.88;;;3.42;;
18411;SDS011;27097;51.738;19.472;2023-03-13T07:26:00;14.40;;;3.88;;
18411;SDS011;27097;51.738;19.472;2023-03-13T07:28:28;8.40;;;3.47;;
18411;SDS011;27097;51.738;19.472;2023-03-13T07:31:07;12.05;;;3.72;;
18411;SDS011;27097;51.738;19.472;2023-03-13T07:33:36;10.07;;;3.50;;
18411;SDS011;27097;51.738;19.472;2023-03-13T07:36:03;14.15;;;3.63;;
18411;SDS011;27097;51.738;19.472;2023-03-13T07:38:32;12.55;;;4.10;;
18411;SDS011;27097;51.738;19.472;2023-03-13T07:41:00;14.52;;;4.00;;
18411;SDS011;27097;51.738;19.472;2023-03-13T07:43:28;13.10;;;3.80;;
18411;SDS011;27097;51.738;19.472;2023-03-13T07:45:56;10.15;;;3.25;;
18411;SDS011;27097;51.738;19.472;2023-03-13T07:48:24;12.00;;;3.35;;
18411;SDS011;27097;51.738;19.472;2023-03-13T07:50:54;6.72;;;3.60;;
18411;SDS011;27097;51.738;19.472;2023-03-13T07:53:21;10.68;;;3.70;;
18411;SDS011;27097;51.738;19.472;2023-03-13T07:55:53;13.45;;;4.78;;
18411;SDS011;27097;51.738;19.472;2023-03-13T07:58:21;13.27;;;4.90;;
18411;SDS011;27097;51.738;19.472;2023-03-13T08:00:49;11.52;;;5.35;;
18411;SDS011;27097;51.738;19.472;2023-03-13T08:03:16;14.18;;;5.68;;
18411;SDS011;27097;51.738;19.472;2023-03-13T08:05:57;14.25;;;4.72;;
18411;SDS011;27097;51.738;19.472;2023-03-13T08:08:25;9.23;;;4.82;;
18411;SDS011;27097;51.738;19.472;2023-03-13T08:10:53;9.15;;;4.72;;
18411;SDS011;27097;51.738;19.472;2023-03-13T08:13:25;9.63;;;4.20;;
18411;SDS011;27097;51.738;19.472;2023-03-13T08:15:52;14.27;;;4.60;;
18411;SDS011;27097;51.738;19.472;2023-03-13T08:18:26;13.05;;;5.10;;
18411;SDS011;27097;51.738;19.472;2023-03-13T08:20:53;10.52;;;4.70;;
18411;SDS011;27097;51.738;19.472;2023-03-13T08:23:19;11.25;;;4.50;;
18411;SDS011;27097;51.738;19.472;2023-03-13T08:25:46;11.27;;;4.65;;
18411;SDS011;27097;51.738;19.472;2023-03-13T08:28:14;12.23;;;5.15;;
18411;SDS011;27097;51.738;19.472;2023-03-13T08:30:41;20.83;;;5.97;;
18411;SDS011;27097;51.738;19.472;2023-03-13T08:33:08;33.90;;;9.27;;
18411;SDS011;27097;51.738;19.472;2023-03-13T08:35:35;30.92;;;7.28;;
18411;SDS011;27097;51.738;19.472;2023-03-13T08:38:02;20.02;;;6.28;;
18411;SDS011;27097;51.738;19.472;2023-03-13T08:40:30;22.73;;;6.45;;
18411;SDS011;27097;51.738;19.472;2023-03-13T08:42:57;16.92;;;6.03;;
18411;SDS011;27097;51.738;19.472;2023-03-13T08:45:26;13.68;;;6.10;;
18411;SDS011;27097;51.738;19.472;2023-03-13T08:47:52;14.88;;;5.57;;
18411;SDS011;27097;51.738;19.472;2023-03-13T08:50:19;12.40;;;4.93;;
18411;SDS011;27097;51.738;19.472;2023-03-13T08:52:46;21.10;;;5.68;;
18411;SDS011;27097;51.738;19.472;2023-03-13T08:55:13;16.20;;;5.68;;
18411;SDS011;27097;51.738;19.472;2023-03-13T08:57:40;11.43;;;4.80;;
18411;SDS011;27097;51.738;19.472;2023-03-13T09:00:07;12.90;;;4.88;;
18411;SDS011;27097;51.738;19.472;2023-03-13T09:02:38;13.65;;;4.75;;
18411;SDS011;27097;51.738;19.472;2023-03-13T09:05:06;15.00;;;4.93;;
18411;SDS011;27097;51.738;19.472;2023-03-13T09:07:33;14.75;;;4.90;;
18411;SDS011;27097;51.738;19.472;2023-03-13T09:10:00;13.35;;;4.72;;
18411;SDS011;27097;51.738;19.472;2023-03-13T09:12:26;15.30;;;4.78;;
18411;SDS011;27097;51.738;19.472;2023-03-13T09:14:55;15.02;;;4.35;;
18411;SDS011;27097;51.738;19.472;2023-03-13T09:17:22;11.95;;;4.38;;
18411;SDS011;27097;51.738;19.472;2023-03-13T09:19:51;14.20;;;4.72;;
18411;SDS011;27097;51.738;19.472;2023-03-13T09:22:18;10.15;;;4.22;;
18411;SDS011;27097;51.738;19.472;2023-03-13T09:24:44;12.10;;;4.25;;
18411;SDS011;27097;51.738;19.472;2023-03-13T09:27:11;19.35;;;4.40;;
18411;SDS011;27097;51.738;19.472;2023-03-13T09:29:38;8.45;;;3.83;;
18411;SDS011;27097;51.738;19.472;2023-03-13T09:32:06;16.30;;;4.25;;
18411;SDS011;27097;51.738;19.472;2023-03-13T09:34:34;15.10;;;4.30;;
18411;SDS011;27097;51.738;19.472;2023-03-13T09:37:02;10.88;;;4.00;;
18411;SDS011;27097;51.738;19.472;2023-03-13T09:39:29;11.65;;;4.10;;
18411;SDS011;27097;51.738;19.472;2023-03-13T09:41:58;7.68;;;3.97;;
18411;SDS011;27097;51.738;19.472;2023-03-13T09:44:35;14.68;;;4.50;;
18411;SDS011;27097;51.738;19.472;2023-03-13T09:47:06;11.93;;;4.75;;
18411;SDS011;27097;51.738;19.472;2023-03-13T09:49:38;9.05;;;4.03;;
18411;SDS011;27097;51.738;19.472;2023-03-13T09:52:15;9.38;;;4.07;;
18411;SDS011;27097;51.738;19.472;2023-03-13T09:54:52;13.45;;;4.32;;
18411;SDS011;27097;51.738;19.472;2023-03-13T09:57:24;9.18;;;4.15;;
18411;SDS011;27097;51.738;19.472;2023-03-13T09:59:57;9.43;;;3.85;;
18411;SDS011;27097;51.738;19.472;2023-03-13T10:02:30;9.75;;;3.90;;
18411;SDS011;27097;51.738;19.472;2023-03-13T10:05:09;9.80;;;3.78;;
18411;SDS011;27097;51.738;19.472;2023-03-13T10:07:41;11.80;;;4.05;;
18411;SDS011;27097;51.738;19.472;2023-03-13T10:10:10;12.27;;;3.63;;
18411;SDS011;27097;51.738;19.472;2023-03-13T10:12:42;12.55;;;4.10;;
18411;SDS011;27097;51.738;19.472;2023-03-13T10:18:09;9.65;;;4.43;;
18411;SDS011;27097;51.738;19.472;2023-03-13T10:20:42;10.75;;;3.90;;
18411;SDS011;27097;51.738;19.472;2023-03-13T10:23:14;9.05;;;3.83;;
18411;SDS011;27097;51.738;19.472;2023-03-13T10:25:46;7.80;;;3.83;;
18411;SDS011;27097;51.738;19.472;2023-03-13T10:28:13;8.63;;;3.70;;
18411;SDS011;27097;51.738;19.472;2023-03-13T10:30:45;10.63;;;4.30;;
18411;SDS011;27097;51.738;19.472;2023-03-13T10:33:23;8.43;;;4.20;;
18411;SDS011;27097;51.738;19.472;2023-03-13T10:36:01;8.95;;;3.65;;
18411;SDS011;27097;51.738;19.472;2023-03-13T10:38:33;8.95;;;3.85;;
18411;SDS011;27097;51.738;19.472;2023-03-13T10:41:17;9.88;;;3.50;;
18411;SDS011;27097;51.738;19.472;2023-03-13T10:43:50;10.48;;;4.20;;
18411;SDS011;27097;51.738;19.472;2023-03-13T10:46:24;9.52;;;4.05;;
18411;SDS011;27097;51.738;19.472;2023-03-13T10:48:53;7.70;;;3.63;;
18411;SDS011;27097;51.738;19.472;2023-03-13T10:51:21;9.75;;;3.47;;
18411;SDS011;27097;51.738;19.472;2023-03-13T10:53:51;9.32;;;3.80;;
18411;SDS011;27097;51.738;19.472;2023-03-13T10:56:21;6.55;;;3.40;;
18411;SDS011;27097;51.738;19.472;2023-03-13T10:58:53;8.75;;;3.47;;
18411;SDS011;27097;51.738;19.472;2023-03-13T11:01:21;10.85;;;3.63;;
18411;SDS011;27097;51.738;19.472;2023-03-13T11:03:50;8.90;;;3.60;;
18411;SDS011;27097;51.738;19.472;2023-03-13T11:06:23;12.80;;;3.55;;
18411;SDS011;27097;51.738;19.472;2023-03-13T11:09:02;14.27;;;3.10;;
18411;SDS011;27097;51.738;19.472;2023-03-13T11:11:31;8.50;;;3.20;;
18411;SDS011;27097;51.738;19.472;2023-03-13T11:14:12;14.02;;;3.55;;
18411;SDS011;27097;51.738;19.472;2023-03-13T11:16:42;11.45;;;3.60;;
18411;SDS011;27097;51.738;19.472;2023-03-13T11:19:26;11.07;;;3.53;;
18411;SDS011;27097;51.738;19.472;2023-03-13T11:22:04;11.43;;;3.45;;
18411;SDS011;27097;51.738;19.472;2023-03-13T11:24:41;11.95;;;3.40;;
18411;SDS011;27097;51.738;19.472;2023-03-13T11:27:14;8.30;;;3.03;;
18411;SDS011;27097;51.738;19.472;2023-03-13T11:29:53;11.00;;;3.08;;
18411;SDS011;27097;51.738;19.472;2023-03-13T11:32:29;9.45;;;3.60;;
18411;SDS011;27097;51.738;19.472;2023-03-13T11:35:04;10.40;;;3.35;;
18411;SDS011;27097;51.738;19.472;2023-03-13T11:37:40;8.55;;;3.50;;
18411;SDS011;27097;51.738;19.472;2023-03-13T11:40:13;8.77;;;3.35;;
18411;SDS011;27097;51.738;19.472;2023-03-13T11:42:51;8.60;;;3.22;;
18411;SDS011;27097;51.738;19.472;2023-03-13T11:45:34;9.27;;;3.33;;
18411;SDS011;27097;51.738;19.472;2023-03-13T11:48:17;8.35;;;3.10;;
18411;SDS011;27097;51.738;19.472;2023-03-13T11:51:05;6.78;;;2.88;;
18411;SDS011;27097;51.738;19.472;2023-03-13T11:53:40;8.30;;;2.95;;
18411;SDS011;27097;51.738;19.472;2023-03-13T11:56:24;8.30;;;3.20;;
18411;SDS011;27097;51.738;19.472;2023-03-13T11:59:02;7.75;;;3.20;;
18411;SDS011;27097;51.738;19.472;2023-03-13T12:01:40;7.07;;;3.05;;
18411;SDS011;27097;51.738;19.472;2023-03-13T12:04:12;7.10;;;3.20;;
18411;SDS011;27097;51.738;19.472;2023-03-13T12:06:43;9.20;;;3.13;;
18411;SDS011;27097;51.738;19.472;2023-03-13T12:09:18;7.97;;;2.88;;
18411;SDS011;27097;51.738;19.472;2023-03-13T12:11:54;6.78;;;2.88;;
18411;SDS011;27097;51.738;19.472;2023-03-13T12:14:29;7.22;;;3.38;;
18411;SDS011;27097;51.738;19.472;2023-03-13T12:16:58;10.75;;;2.92;;
18411;SDS011;27097;51.738;19.472;2023-03-13T12:19:29;6.80;;;3.03;;
18411;SDS011;27097;51.738;19.472;2023-03-13T12:22:01;5.20;;;2.70;;
18411;SDS011;27097;51.738;19.472;2023-03-13T12:24:37;8.80;;;3.00;;
18411;SDS011;27097;51.738;19.472;2023-03-13T12:27:10;7.47;;;3.33;;
18411;SDS011;27097;51.738;19.472;2023-03-13T12:29:44;8.10;;;2.72;;
18411;SDS011;27097;51.738;19.472;2023-03-13T12:32:17;6.18;;;3.05;;
18411;SDS011;27097;51.738;19.472;2023-03-13T12:34:51;6.32;;;3.00;;
18411;SDS011;27097;51.738;19.472;2023-03-13T12:37:27;6.68;;;3.03;;
18411;SDS011;27097;51.738;19.472;2023-03-13T12:39:59;8.45;;;3.20;;
18411;SDS011;27097;51.738;19.472;2023-03-13T12:42:38;7.10;;;3.05;;
18411;SDS011;27097;51.738;19.472;2023-03-13T12:45:11;9.40;;;3.22;;
18411;SDS011;27097;51.738;19.472;2023-03-13T12:47:50;8.20;;;3.20;;
18411;SDS011;27097;51.738;19.472;2023-03-13T12:50:41;11.38;;;3.13;;
18411;SDS011;27097;51.738;19.472;2023-03-13T12:53:29;13.07;;;3.72;;
18411;SDS011;27097;51.738;19.472;2023-03-13T12:59:04;9.30;;;4.10;;
18411;SDS011;27097;51.738;19.472;2023-03-13T13:01:36;13.48;;;4.63;;
18411;SDS011;27097;51.738;19.472;2023-03-13T13:04:09;9.55;;;3.75;;
18411;SDS011;27097;51.738;19.472;2023-03-13T13:06:55;9.40;;;3.55;;
18411;SDS011;27097;51.738;19.472;2023-03-13T13:09:27;7.47;;;3.17;;
18411;SDS011;27097;51.738;19.472;2023-03-13T13:11:59;11.93;;;2.90;;
18411;SDS011;27097;51.738;19.472;2023-03-13T13:17:42;7.05;;;3.00;;
18411;SDS011;27097;51.738;19.472;2023-03-13T13:20:37;7.82;;;3.00;;
18411;SDS011;27097;51.738;19.472;2023-03-13T13:32:32;9.52;;;2.85;;
18411;SDS011;27097;51.738;19.472;2023-03-13T13:35:21;7.43;;;2.90;;
18411;SDS011;27097;51.738;19.472;2023-03-13T13:37:54;6.05;;;3.00;;
18411;SDS011;27097;51.738;19.472;2023-03-13T13:41:03;8.60;;;3.08;;
18411;SDS011;27097;51.738;19.472;2023-03-13T13:43:50;8.98;;;2.95;;
18411;SDS011;27097;51.738;19.472;2023-03-13T13:46:51;8.23;;;2.70;;
18411;SDS011;27097;51.738;19.472;2023-03-13T13:49:20;6.50;;;2.72;;
18411;SDS011;27097;51.738;19.472;2023-03-13T13:58:10;7.38;;;2.90;;
18411;SDS011;27097;51.738;19.472;2023-03-13T14:00:40;6.00;;;3.13;;
18411;SDS011;27097;51.738;19.472;2023-03-13T14:03:17;7.25;;;3.13;;
18411;SDS011;27097;51.738;19.472;2023-03-13T14:05:46;7.18;;;2.80;;
18411;SDS011;27097;51.738;19.472;2023-03-13T14:08:15;10.18;;;3.33;;
18411;SDS011;27097;51.738;19.472;2023-03-13T14:10:46;8.60;;;3.08;;
18411;SDS011;27097;51.738;19.472;2023-03-13T14:13:17;8.38;;;3.22;;
18411;SDS011;27097;51.738;19.472;2023-03-13T14:15:47;11.13;;;3.55;;
18411;SDS011;27097;51.738;19.472;2023-03-13T14:18:20;9.88;;;3.20;;
18411;SDS011;27097;51.738;19.472;2023-03-13T14:20:55;7.68;;;3.17;;
18411;SDS011;27097;51.738;19.472;2023-03-13T14:23:27;12.60;;;3.20;;
18411;SDS011;27097;51.738;19.472;2023-03-13T14:26:10;14.63;;;3.53;;
18411;SDS011;27097;51.738;19.472;2023-03-13T14:28:40;13.75;;;3.53;;
18411;SDS011;27097;51.738;19.472;2023-03-13T14:31:10;13.25;;;3.38;;
18411;SDS011;27097;51.738;19.472;2023-03-13T14:33:47;9.68;;;3.28;;
18411;SDS011;27097;51.738;19.472;2023-03-13T14:36:14;18.83;;;3.60;;
18411;SDS011;27097;51.738;19.472;2023-03-13T14:38:46;11.88;;;3.58;;
18411;SDS011;27097;51.738;19.472;2023-03-13T14:41:26;10.15;;;3.70;;
18411;SDS011;27097;51.738;19.472;2023-03-13T14:44:00;13.63;;;3.67;;
18411;SDS011;27097;51.738;19.472;2023-03-13T14:46:30;14.50;;;3.58;;
18411;SDS011;27097;51.738;19.472;2023-03-13T14:49:04;8.20;;;3.22;;
18411;SDS011;27097;51.738;19.472;2023-03-13T14:51:40;10.48;;;3.45;;
18411;SDS011;27097;51.738;19.472;2023-03-13T14:54:20;9.27;;;3.45;;
18411;SDS011;27097;51.738;19.472;2023-03-13T14:57:00;12.10;;;3.72;;
18411;SDS011;27097;51.738;19.472;2023-03-13T14:59:29;8.82;;;3.20;;
18411;SDS011;27097;51.738;19.472;2023-03-13T15:01:59;9.55;;;3.63;;
18411;SDS011;27097;51.738;19.472;2023-03-13T15:04:47;9.98;;;3.90;;
18411;SDS011;27097;51.738;19.472;2023-03-13T15:07:34;9.05;;;3.70;;
18411;SDS011;27097;51.738;19.472;2023-03-13T15:10:19;12.13;;;3.35;;
18411;SDS011;27097;51.738;19.472;2023-03-13T15:13:22;8.85;;;3.85;;
18411;SDS011;27097;51.738;19.472;2023-03-13T15:15:50;13.73;;;4.20;;
18411;SDS011;27097;51.738;19.472;2023-03-13T15:18:22;20.58;;;4.47;;
18411;SDS011;27097;51.738;19.472;2023-03-13T15:20:57;10.82;;;4.20;;
18411;SDS011;27097;51.738;19.472;2023-03-13T15:26:54;11.63;;;3.78;;
18411;SDS011;27097;51.738;19.472;2023-03-13T15:29:26;12.05;;;4.20;;
18411;SDS011;27097;51.738;19.472;2023-03-13T15:31:52;11.43;;;4.32;;
18411;SDS011;27097;51.738;19.472;2023-03-13T15:34:21;12.13;;;4.55;;
18411;SDS011;27097;51.738;19.472;2023-03-13T15:36:49;11.23;;;4.03;;
18411;SDS011;27097;51.738;19.472;2023-03-13T15:39:16;13.32;;;4.60;;
18411;SDS011;27097;51.738;19.472;2023-03-13T15:41:44;10.30;;;4.10;;
18411;SDS011;27097;51.738;19.472;2023-03-13T15:44:11;10.57;;;4.03;;
18411;SDS011;27097;51.738;19.472;2023-03-13T15:46:38;10.48;;;4.18;;
18411;SDS011;27097;51.738;19.472;2023-03-13T15:49:05;11.40;;;3.92;;
18411;SDS011;27097;51.738;19.472;2023-03-13T15:51:38;11.32;;;4.00;;
18411;SDS011;27097;51.738;19.472;2023-03-13T15:54:05;14.55;;;4.40;;
18411;SDS011;27097;51.738;19.472;2023-03-13T15:56:33;9.43;;;3.92;;